DLH821 ESGG-EDDF
Flight info
| Callsign | DLH821 |
|---|---|
| Flight time | N/A |
| Altitude | 35000 |
| Route | TOPLA L996 ERNOV DCT NIKDA/N0443F360 DCT NOBRI DCT BUMIL DCT HLZ DCT RIMET/N0427F310 T157 KOKEB/N0376F230 T157 KERAX KERAX5A |
| Aircraft | A321/M-SDE2E3FGIJ1LORWXYZ/HB1 |
Departure
| Time | 2026-05-06 06:27 |
|---|---|
| Airport | Göteborg Landvetter Airport (ESGG) |
Arrival
| Time | N/A |
|---|---|
| Airport | Frankfurt Main Airport (EDDF) |
| Time | Latitude | Longitude | Altitude | Speed | Heading |
|---|---|---|---|---|---|
| 2026-05-06 05:14 | 57.66934 | 12.29460 | 516 ft | 0 kts | 116° |
| 2026-05-06 06:20 | 57.66937 | 12.29448 | 516 ft | 4 kts | 116° |
| 2026-05-06 06:20 | 57.66947 | 12.29411 | 516 ft | 0 kts | 116° |
| 2026-05-06 06:21 | 57.66953 | 12.29388 | 516 ft | 3 kts | 116° |
| 2026-05-06 06:21 | 57.66963 | 12.29356 | 516 ft | 4 kts | 161° |
| 2026-05-06 06:21 | 57.66987 | 12.29360 | 516 ft | 4 kts | 204° |
| 2026-05-06 06:21 | 57.67004 | 12.29375 | 516 ft | 0 kts | 206° |
| 2026-05-06 06:24 | 57.66989 | 12.29358 | 516 ft | 7 kts | 218° |
| 2026-05-06 06:24 | 57.67001 | 12.29255 | 516 ft | 11 kts | 310° |
| 2026-05-06 06:24 | 57.67071 | 12.29215 | 516 ft | 12 kts | 18° |
| 2026-05-06 06:25 | 57.67152 | 12.29282 | 516 ft | 14 kts | 24° |
| 2026-05-06 06:25 | 57.67243 | 12.29367 | 516 ft | 16 kts | 27° |
| 2026-05-06 06:25 | 57.67442 | 12.29407 | 519 ft | 15 kts | 290° |
| 2026-05-06 06:26 | 57.67458 | 12.29198 | 513 ft | 15 kts | 263° |
| 2026-05-06 06:26 | 57.67448 | 12.29066 | 513 ft | 10 kts | 250° |
| 2026-05-06 06:26 | 57.67395 | 12.28994 | 515 ft | 11 kts | 206° |
| 2026-05-06 06:26 | 57.67153 | 12.28771 | 521 ft | 76 kts | 206° |
| 2026-05-06 06:27 | 57.66458 | 12.28145 | 519 ft | 143 kts | 205° |
| 2026-05-06 06:27 | 57.65434 | 12.27179 | 776 ft | 174 kts | 205° |
| 2026-05-06 06:27 | 57.64334 | 12.26116 | 1498 ft | 182 kts | 204° |
| 2026-05-06 06:27 | 57.63168 | 12.25046 | 2039 ft | 196 kts | 202° |
| 2026-05-06 06:28 | 57.61856 | 12.23908 | 2327 ft | 218 kts | 202° |
| 2026-05-06 06:28 | 57.60342 | 12.22907 | 2525 ft | 245 kts | 189° |
| 2026-05-06 06:28 | 57.58608 | 12.22529 | 3195 ft | 253 kts | 182° |
| 2026-05-06 06:28 | 57.56835 | 12.22368 | 4026 ft | 257 kts | 180° |
| 2026-05-06 06:29 | 57.55041 | 12.22472 | 4817 ft | 261 kts | 169° |
| 2026-05-06 06:29 | 57.53238 | 12.23116 | 5595 ft | 266 kts | 169° |
| 2026-05-06 06:29 | 57.51422 | 12.23699 | 6387 ft | 270 kts | 171° |
| 2026-05-06 06:29 | 57.49556 | 12.24246 | 7138 ft | 274 kts | 173° |
| 2026-05-06 06:30 | 57.47653 | 12.24772 | 7898 ft | 278 kts | 173° |
| 2026-05-06 06:30 | 57.45729 | 12.25290 | 8684 ft | 281 kts | 173° |
| 2026-05-06 06:30 | 57.43783 | 12.25807 | 9484 ft | 284 kts | 174° |
| 2026-05-06 06:30 | 57.41814 | 12.26332 | 10196 ft | 289 kts | 174° |
| 2026-05-06 06:31 | 57.39746 | 12.26881 | 10405 ft | 312 kts | 174° |
| 2026-05-06 06:31 | 57.37527 | 12.27468 | 10647 ft | 330 kts | 174° |
| 2026-05-06 06:31 | 57.35227 | 12.28082 | 11201 ft | 336 kts | 174° |
| 2026-05-06 06:31 | 57.32898 | 12.28709 | 11840 ft | 340 kts | 175° |
| 2026-05-06 06:32 | 57.30543 | 12.29341 | 12484 ft | 343 kts | 175° |
| 2026-05-06 06:32 | 57.28166 | 12.29982 | 13133 ft | 347 kts | 175° |
| 2026-05-06 06:32 | 57.25771 | 12.30630 | 13783 ft | 350 kts | 175° |
| 2026-05-06 06:32 | 57.23348 | 12.31278 | 14340 ft | 353 kts | 176° |
| 2026-05-06 06:33 | 57.20904 | 12.31929 | 14839 ft | 357 kts | 176° |
| 2026-05-06 06:33 | 57.18439 | 12.32590 | 15441 ft | 358 kts | 176° |
| 2026-05-06 06:33 | 57.15964 | 12.33256 | 16059 ft | 360 kts | 176° |
| 2026-05-06 06:33 | 57.13473 | 12.33920 | 16654 ft | 363 kts | 177° |
| 2026-05-06 06:34 | 57.10972 | 12.34567 | 17242 ft | 365 kts | 177° |
| 2026-05-06 06:34 | 57.08446 | 12.35197 | 17812 ft | 368 kts | 178° |
| 2026-05-06 06:34 | 57.05902 | 12.35824 | 18362 ft | 370 kts | 178° |
| 2026-05-06 06:34 | 57.03377 | 12.36445 | 18836 ft | 372 kts | 178° |
| 2026-05-06 06:35 | 57.00809 | 12.37075 | 19370 ft | 373 kts | 178° |
| 2026-05-06 06:35 | 56.98234 | 12.37708 | 19883 ft | 374 kts | 179° |
| 2026-05-06 06:35 | 56.95649 | 12.38342 | 20386 ft | 375 kts | 179° |
| 2026-05-06 06:35 | 56.93058 | 12.38977 | 20877 ft | 377 kts | 179° |
| 2026-05-06 06:36 | 56.90605 | 12.39579 | 21333 ft | 378 kts | 179° |
| 2026-05-06 06:36 | 56.87993 | 12.40221 | 21801 ft | 380 kts | 179° |
| 2026-05-06 06:36 | 56.85374 | 12.40863 | 22290 ft | 381 kts | 179° |
| 2026-05-06 06:36 | 56.82741 | 12.41511 | 22747 ft | 382 kts | 179° |
| 2026-05-06 06:37 | 56.80253 | 12.42120 | 23175 ft | 384 kts | 179° |
| 2026-05-06 06:37 | 56.77599 | 12.42770 | 23614 ft | 386 kts | 179° |
| 2026-05-06 06:37 | 56.74930 | 12.43421 | 23953 ft | 387 kts | 179° |
| 2026-05-06 06:37 | 56.72252 | 12.44077 | 24320 ft | 389 kts | 179° |
| 2026-05-06 06:38 | 56.69564 | 12.44741 | 24696 ft | 391 kts | 179° |
| 2026-05-06 06:38 | 56.66862 | 12.45407 | 25073 ft | 392 kts | 179° |
| 2026-05-06 06:38 | 56.64152 | 12.46070 | 25454 ft | 394 kts | 179° |
| 2026-05-06 06:38 | 56.61432 | 12.46730 | 25830 ft | 395 kts | 179° |
| 2026-05-06 06:39 | 56.58701 | 12.47388 | 26205 ft | 396 kts | 179° |
| 2026-05-06 06:39 | 56.55965 | 12.48050 | 26573 ft | 398 kts | 179° |
| 2026-05-06 06:39 | 56.53216 | 12.48713 | 26928 ft | 399 kts | 179° |
| 2026-05-06 06:39 | 56.50457 | 12.49380 | 27289 ft | 401 kts | 179° |
| 2026-05-06 06:40 | 56.47689 | 12.50046 | 27612 ft | 402 kts | 179° |
| 2026-05-06 06:40 | 56.44912 | 12.50712 | 27974 ft | 403 kts | 179° |
| 2026-05-06 06:40 | 56.42164 | 12.51371 | 28328 ft | 404 kts | 179° |
| 2026-05-06 06:40 | 56.39370 | 12.52039 | 28687 ft | 406 kts | 179° |
| 2026-05-06 06:41 | 56.36568 | 12.52705 | 29044 ft | 407 kts | 179° |
| 2026-05-06 06:41 | 56.33719 | 12.53382 | 29391 ft | 408 kts | 179° |
| 2026-05-06 06:41 | 56.30942 | 12.54043 | 29723 ft | 410 kts | 179° |
| 2026-05-06 06:41 | 56.28112 | 12.54720 | 30042 ft | 411 kts | 179° |
| 2026-05-06 06:42 | 56.25272 | 12.55401 | 30315 ft | 412 kts | 179° |
| 2026-05-06 06:42 | 56.22426 | 12.56080 | 30600 ft | 413 kts | 179° |
| 2026-05-06 06:42 | 56.19575 | 12.56755 | 30837 ft | 413 kts | 178° |
| 2026-05-06 06:42 | 56.16722 | 12.57176 | 31092 ft | 409 kts | 185° |
| 2026-05-06 06:43 | 56.13900 | 12.56827 | 31358 ft | 405 kts | 190° |
| 2026-05-06 06:43 | 56.11102 | 12.56275 | 31700 ft | 403 kts | 190° |
| 2026-05-06 06:43 | 56.08319 | 12.55732 | 32047 ft | 402 kts | 190° |
| 2026-05-06 06:43 | 56.05544 | 12.55200 | 32389 ft | 400 kts | 190° |
| 2026-05-06 06:44 | 56.02790 | 12.54677 | 32732 ft | 398 kts | 190° |
| 2026-05-06 06:44 | 56.00036 | 12.54158 | 33075 ft | 396 kts | 190° |
| 2026-05-06 06:44 | 55.97304 | 12.53647 | 33399 ft | 395 kts | 190° |
| 2026-05-06 06:44 | 55.94571 | 12.53136 | 33723 ft | 393 kts | 189° |
| 2026-05-06 06:45 | 55.91863 | 12.52625 | 34012 ft | 391 kts | 188° |
| 2026-05-06 06:45 | 55.89164 | 12.52114 | 34273 ft | 390 kts | 188° |
| 2026-05-06 06:45 | 55.86464 | 12.51600 | 34512 ft | 389 kts | 188° |
| 2026-05-06 06:45 | 55.83792 | 12.51087 | 34751 ft | 389 kts | 188° |
| 2026-05-06 06:46 | 55.81098 | 12.50572 | 34900 ft | 391 kts | 188° |
| 2026-05-06 06:46 | 55.75715 | 12.49550 | 34926 ft | 387 kts | 188° |
| 2026-05-06 06:47 | 55.70357 | 12.48540 | 34924 ft | 387 kts | 188° |
| 2026-05-06 06:47 | 55.65000 | 12.47539 | 34912 ft | 388 kts | 188° |
| 2026-05-06 06:48 | 55.59624 | 12.46538 | 34922 ft | 389 kts | 188° |
| 2026-05-06 06:48 | 55.54278 | 12.45556 | 34941 ft | 389 kts | 188° |
| 2026-05-06 06:49 | 55.48863 | 12.44552 | 34945 ft | 389 kts | 188° |
| 2026-05-06 06:49 | 55.43508 | 12.43558 | 34945 ft | 389 kts | 188° |
| 2026-05-06 06:50 | 55.38343 | 12.42603 | 34950 ft | 390 kts | 188° |
| 2026-05-06 06:50 | 55.32986 | 12.41604 | 34946 ft | 390 kts | 188° |
| 2026-05-06 06:51 | 55.27593 | 12.40611 | 34944 ft | 390 kts | 188° |
| 2026-05-06 06:51 | 55.22198 | 12.39623 | 34943 ft | 390 kts | 188° |
| 2026-05-06 06:52 | 55.16806 | 12.38641 | 34950 ft | 390 kts | 188° |
| 2026-05-06 06:52 | 55.11409 | 12.37653 | 34919 ft | 390 kts | 187° |
| 2026-05-06 06:53 | 55.06001 | 12.36657 | 34921 ft | 391 kts | 187° |
| 2026-05-06 06:53 | 55.00583 | 12.35680 | 34921 ft | 392 kts | 187° |
| 2026-05-06 06:54 | 54.95160 | 12.34701 | 34916 ft | 392 kts | 187° |
| 2026-05-06 06:54 | 54.89740 | 12.33728 | 34923 ft | 392 kts | 187° |
| 2026-05-06 06:55 | 54.84302 | 12.32757 | 34896 ft | 394 kts | 187° |
| 2026-05-06 06:55 | 54.78878 | 12.31782 | 34895 ft | 395 kts | 187° |
| 2026-05-06 06:56 | 54.73402 | 12.30792 | 34887 ft | 396 kts | 187° |
| 2026-05-06 06:56 | 54.67917 | 12.29805 | 34896 ft | 396 kts | 187° |
| 2026-05-06 06:57 | 54.62423 | 12.28839 | 34876 ft | 397 kts | 187° |
| 2026-05-06 06:57 | 54.57065 | 12.26558 | 34878 ft | 399 kts | 197° |
| 2026-05-06 06:58 | 54.51750 | 12.23738 | 34878 ft | 400 kts | 196° |
| 2026-05-06 06:58 | 54.46413 | 12.20939 | 34879 ft | 401 kts | 196° |
| 2026-05-06 06:59 | 54.41074 | 12.18146 | 34882 ft | 402 kts | 196° |
| 2026-05-06 06:59 | 54.35723 | 12.15343 | 34875 ft | 402 kts | 196° |
| 2026-05-06 07:00 | 54.30395 | 12.12558 | 34875 ft | 403 kts | 196° |
| 2026-05-06 07:00 | 54.25020 | 12.09764 | 34881 ft | 404 kts | 196° |
| 2026-05-06 07:01 | 54.19640 | 12.06966 | 34877 ft | 404 kts | 196° |
| 2026-05-06 07:01 | 54.14259 | 12.04167 | 34866 ft | 405 kts | 195° |
| 2026-05-06 07:02 | 54.08860 | 12.01383 | 34850 ft | 406 kts | 195° |
| 2026-05-06 07:02 | 54.03436 | 11.98589 | 34848 ft | 408 kts | 195° |
| 2026-05-06 07:03 | 53.97995 | 11.95798 | 34858 ft | 409 kts | 195° |
| 2026-05-06 07:03 | 53.92545 | 11.93008 | 34858 ft | 409 kts | 195° |
| 2026-05-06 07:04 | 53.87095 | 11.90218 | 34853 ft | 410 kts | 195° |
| 2026-05-06 07:04 | 53.81626 | 11.87441 | 34850 ft | 411 kts | 195° |
| 2026-05-06 07:05 | 53.76150 | 11.84662 | 34853 ft | 411 kts | 195° |
| 2026-05-06 07:05 | 53.70668 | 11.81881 | 34854 ft | 413 kts | 195° |
| 2026-05-06 07:05 | 53.67910 | 11.80484 | 35033 ft | 415 kts | 195° |
| 2026-05-06 07:06 | 53.65143 | 11.79085 | 35216 ft | 416 kts | 195° |
| 2026-05-06 07:06 | 53.62364 | 11.77682 | 35386 ft | 418 kts | 195° |
| 2026-05-06 07:06 | 53.59575 | 11.76280 | 35592 ft | 419 kts | 195° |
| 2026-05-06 07:06 | 53.56784 | 11.74881 | 35789 ft | 419 kts | 195° |
| 2026-05-06 07:07 | 53.53986 | 11.73482 | 35836 ft | 419 kts | 195° |
| 2026-05-06 07:07 | 53.48395 | 11.70678 | 35839 ft | 419 kts | 195° |
| 2026-05-06 07:08 | 53.42813 | 11.67882 | 35831 ft | 419 kts | 195° |
| 2026-05-06 07:08 | 53.37203 | 11.65090 | 35825 ft | 422 kts | 195° |
| 2026-05-06 07:09 | 53.31572 | 11.62306 | 35826 ft | 422 kts | 195° |
| 2026-05-06 07:09 | 53.26194 | 11.58397 | 35817 ft | 425 kts | 212° |
| 2026-05-06 07:10 | 53.21905 | 11.51572 | 35826 ft | 431 kts | 232° |
| 2026-05-06 07:10 | 53.18429 | 11.43417 | 35820 ft | 432 kts | 232° |
| 2026-05-06 07:11 | 53.14908 | 11.35296 | 35820 ft | 432 kts | 230° |
| 2026-05-06 07:11 | 53.10617 | 11.28459 | 35823 ft | 426 kts | 211° |
| 2026-05-06 07:12 | 53.05322 | 11.24202 | 35835 ft | 423 kts | 200° |
| 2026-05-06 07:12 | 52.99887 | 11.20641 | 35834 ft | 423 kts | 200° |
| 2026-05-06 07:13 | 52.94421 | 11.17052 | 35832 ft | 423 kts | 200° |
| 2026-05-06 07:13 | 52.88953 | 11.13464 | 35827 ft | 423 kts | 200° |
| 2026-05-06 07:14 | 52.83482 | 11.09889 | 35830 ft | 423 kts | 200° |
| 2026-05-06 07:14 | 52.78010 | 11.06332 | 35824 ft | 422 kts | 200° |
| 2026-05-06 07:15 | 52.72539 | 11.02776 | 35820 ft | 422 kts | 200° |
| 2026-05-06 07:15 | 52.67073 | 10.99232 | 35818 ft | 423 kts | 200° |
| 2026-05-06 07:16 | 52.62483 | 10.96271 | 35817 ft | 423 kts | 200° |
| 2026-05-06 07:16 | 52.57046 | 10.92773 | 35816 ft | 423 kts | 200° |
| 2026-05-06 07:17 | 52.51569 | 10.89250 | 35804 ft | 423 kts | 200° |
| 2026-05-06 07:17 | 52.46091 | 10.85743 | 35802 ft | 423 kts | 200° |
| 2026-05-06 07:18 | 52.40604 | 10.82248 | 35797 ft | 423 kts | 200° |
| 2026-05-06 07:18 | 52.35112 | 10.78777 | 35796 ft | 423 kts | 200° |
| 2026-05-06 07:19 | 52.29575 | 10.75547 | 35797 ft | 423 kts | 198° |
| 2026-05-06 07:19 | 52.24007 | 10.72451 | 35794 ft | 423 kts | 198° |
| 2026-05-06 07:20 | 52.18444 | 10.69332 | 35797 ft | 423 kts | 198° |
| 2026-05-06 07:20 | 52.12888 | 10.66174 | 35795 ft | 423 kts | 199° |
| 2026-05-06 07:21 | 52.07335 | 10.63006 | 35794 ft | 423 kts | 199° |
| 2026-05-06 07:21 | 52.01783 | 10.59869 | 35799 ft | 423 kts | 199° |
| 2026-05-06 07:22 | 51.96223 | 10.56752 | 35793 ft | 423 kts | 199° |
| 2026-05-06 07:22 | 51.90700 | 10.53655 | 35787 ft | 423 kts | 199° |
| 2026-05-06 07:23 | 51.85139 | 10.50538 | 35789 ft | 423 kts | 199° |
| 2026-05-06 07:23 | 51.79576 | 10.47431 | 35786 ft | 423 kts | 199° |
| 2026-05-06 07:24 | 51.74019 | 10.44334 | 35788 ft | 423 kts | 199° |
| 2026-05-06 07:24 | 51.68453 | 10.41232 | 35777 ft | 423 kts | 199° |
| 2026-05-06 07:25 | 51.62814 | 10.38108 | 35006 ft | 435 kts | 198° |
| 2026-05-06 07:25 | 51.59939 | 10.36522 | 34162 ft | 438 kts | 198° |
| 2026-05-06 07:25 | 51.57053 | 10.34930 | 33306 ft | 440 kts | 198° |
| 2026-05-06 07:25 | 51.54157 | 10.33333 | 32536 ft | 439 kts | 198° |
| 2026-05-06 07:26 | 51.51276 | 10.31743 | 31872 ft | 436 kts | 198° |
| 2026-05-06 07:26 | 51.48416 | 10.30167 | 31264 ft | 432 kts | 197° |
| 2026-05-06 07:26 | 51.45580 | 10.28610 | 30685 ft | 429 kts | 197° |
| 2026-05-06 07:26 | 51.42767 | 10.27069 | 30116 ft | 426 kts | 197° |
| 2026-05-06 07:27 | 51.39982 | 10.25544 | 29526 ft | 422 kts | 197° |
| 2026-05-06 07:27 | 51.37248 | 10.24052 | 28907 ft | 418 kts | 197° |
| 2026-05-06 07:27 | 51.34502 | 10.22587 | 28362 ft | 413 kts | 195° |
| 2026-05-06 07:27 | 51.31699 | 10.21922 | 27853 ft | 405 kts | 181° |
| 2026-05-06 07:28 | 51.28896 | 10.21853 | 27247 ft | 401 kts | 181° |
| 2026-05-06 07:28 | 51.26118 | 10.21793 | 26649 ft | 397 kts | 181° |
| 2026-05-06 07:28 | 51.20643 | 10.21680 | 25475 ft | 390 kts | 181° |
| 2026-05-06 07:29 | 51.17937 | 10.21630 | 24905 ft | 387 kts | 182° |
| 2026-05-06 07:29 | 51.15250 | 10.21581 | 24350 ft | 384 kts | 182° |
| 2026-05-06 07:29 | 51.12587 | 10.21530 | 23806 ft | 381 kts | 182° |
| 2026-05-06 07:29 | 51.09945 | 10.21480 | 23253 ft | 378 kts | 182° |
| 2026-05-06 07:30 | 51.07329 | 10.21431 | 22639 ft | 375 kts | 182° |
| 2026-05-06 07:30 | 51.04728 | 10.21382 | 22067 ft | 372 kts | 183° |
| 2026-05-06 07:30 | 51.02151 | 10.21334 | 21484 ft | 369 kts | 182° |
| 2026-05-06 07:30 | 50.99610 | 10.21072 | 20921 ft | 363 kts | 193° |
| 2026-05-06 07:31 | 50.97264 | 10.19736 | 20391 ft | 357 kts | 210° |
| 2026-05-06 07:31 | 50.95259 | 10.17466 | 19832 ft | 353 kts | 218° |
| 2026-05-06 07:31 | 50.93337 | 10.15058 | 19268 ft | 351 kts | 219° |
| 2026-05-06 07:31 | 50.91437 | 10.12663 | 18737 ft | 348 kts | 219° |
| 2026-05-06 07:32 | 50.89552 | 10.10281 | 18198 ft | 345 kts | 219° |
| 2026-05-06 07:32 | 50.87685 | 10.07928 | 17595 ft | 342 kts | 218° |
| 2026-05-06 07:32 | 50.85826 | 10.05596 | 17004 ft | 340 kts | 218° |
| 2026-05-06 07:32 | 50.83979 | 10.03290 | 16424 ft | 337 kts | 218° |
| 2026-05-06 07:33 | 50.82145 | 10.01008 | 15844 ft | 334 kts | 218° |
| 2026-05-06 07:33 | 50.80324 | 9.98743 | 15287 ft | 332 kts | 219° |
| 2026-05-06 07:33 | 50.78516 | 9.96498 | 14738 ft | 329 kts | 219° |
| 2026-05-06 07:33 | 50.76721 | 9.94270 | 14198 ft | 327 kts | 219° |
| 2026-05-06 07:34 | 50.74941 | 9.92056 | 13665 ft | 324 kts | 219° |
| 2026-05-06 07:34 | 50.73179 | 9.89863 | 13084 ft | 322 kts | 219° |
| 2026-05-06 07:34 | 50.71426 | 9.87683 | 12522 ft | 319 kts | 219° |
| 2026-05-06 07:34 | 50.69686 | 9.85520 | 12014 ft | 318 kts | 219° |
| 2026-05-06 07:35 | 50.67954 | 9.83373 | 11507 ft | 316 kts | 219° |
| 2026-05-06 07:35 | 50.66233 | 9.81244 | 11141 ft | 313 kts | 219° |
| 2026-05-06 07:35 | 50.64509 | 9.79112 | 10898 ft | 313 kts | 219° |
| 2026-05-06 07:35 | 50.62838 | 9.77047 | 10761 ft | 298 kts | 219° |
| 2026-05-06 07:36 | 50.61259 | 9.75097 | 10766 ft | 280 kts | 219° |
| 2026-05-06 07:36 | 50.59742 | 9.73229 | 10765 ft | 276 kts | 219° |
| 2026-05-06 07:36 | 50.58233 | 9.71374 | 10783 ft | 275 kts | 219° |
| 2026-05-06 07:36 | 50.56706 | 9.69632 | 10779 ft | 275 kts | 211° |
| 2026-05-06 07:37 | 50.55023 | 9.68183 | 10776 ft | 276 kts | 210° |
| 2026-05-06 07:37 | 50.53339 | 9.66755 | 10773 ft | 276 kts | 210° |
| 2026-05-06 07:37 | 50.51647 | 9.65333 | 10778 ft | 276 kts | 209° |
| 2026-05-06 07:37 | 50.49953 | 9.63919 | 10786 ft | 276 kts | 209° |
| 2026-05-06 07:38 | 50.48255 | 9.62509 | 10779 ft | 276 kts | 209° |
| 2026-05-06 07:38 | 50.46558 | 9.61102 | 10760 ft | 276 kts | 209° |
| 2026-05-06 07:38 | 50.44860 | 9.59699 | 10775 ft | 276 kts | 209° |
| 2026-05-06 07:38 | 50.43162 | 9.58294 | 10778 ft | 276 kts | 209° |
| 2026-05-06 07:39 | 50.41463 | 9.56890 | 10777 ft | 276 kts | 209° |
| 2026-05-06 07:39 | 50.39763 | 9.55486 | 10779 ft | 276 kts | 209° |
| 2026-05-06 07:39 | 50.38063 | 9.54082 | 10773 ft | 276 kts | 209° |
| 2026-05-06 07:39 | 50.36367 | 9.52680 | 10793 ft | 276 kts | 209° |
| 2026-05-06 07:40 | 50.34664 | 9.51275 | 10796 ft | 276 kts | 209° |
| 2026-05-06 07:40 | 50.32964 | 9.49868 | 10797 ft | 276 kts | 209° |
| 2026-05-06 07:40 | 50.31263 | 9.48465 | 10797 ft | 276 kts | 209° |
| 2026-05-06 07:40 | 50.29562 | 9.47061 | 10800 ft | 276 kts | 209° |
| 2026-05-06 07:41 | 50.27861 | 9.45658 | 10801 ft | 276 kts | 209° |
| 2026-05-06 07:41 | 50.26169 | 9.44268 | 10600 ft | 273 kts | 209° |
| 2026-05-06 07:41 | 50.24606 | 9.42621 | 10218 ft | 270 kts | 223° |
| 2026-05-06 07:41 | 50.23389 | 9.40413 | 9809 ft | 269 kts | 237° |
| 2026-05-06 07:42 | 50.22575 | 9.37835 | 9403 ft | 268 kts | 249° |
| 2026-05-06 07:42 | 50.21953 | 9.35097 | 8979 ft | 267 kts | 249° |
| 2026-05-06 07:42 | 50.21329 | 9.32380 | 8535 ft | 265 kts | 249° |
| 2026-05-06 07:42 | 50.20704 | 9.29680 | 8143 ft | 264 kts | 249° |
| 2026-05-06 07:43 | 50.20083 | 9.27002 | 7778 ft | 262 kts | 249° |
| 2026-05-06 07:43 | 50.19464 | 9.24339 | 7400 ft | 260 kts | 249° |
| 2026-05-06 07:43 | 50.18851 | 9.21692 | 7046 ft | 258 kts | 249° |
| 2026-05-06 07:43 | 50.18243 | 9.19067 | 6683 ft | 257 kts | 249° |
| 2026-05-06 07:44 | 50.17633 | 9.16447 | 6270 ft | 257 kts | 249° |
| 2026-05-06 07:44 | 50.17023 | 9.13835 | 5899 ft | 256 kts | 250° |
| 2026-05-06 07:44 | 50.16415 | 9.11237 | 5520 ft | 254 kts | 250° |
| 2026-05-06 07:44 | 50.15810 | 9.08655 | 5114 ft | 253 kts | 249° |
| 2026-05-06 07:45 | 50.15200 | 9.06124 | 4923 ft | 244 kts | 249° |
| 2026-05-06 07:45 | 50.14621 | 9.03700 | 4791 ft | 233 kts | 249° |
| 2026-05-06 07:45 | 50.14077 | 9.01375 | 4632 ft | 224 kts | 250° |
| 2026-05-06 07:45 | 50.13550 | 8.99116 | 4390 ft | 219 kts | 249° |
| 2026-05-06 07:46 | 50.13028 | 8.96886 | 4040 ft | 219 kts | 249° |
| 2026-05-06 07:46 | 50.12512 | 8.94680 | 4004 ft | 217 kts | 249° |
| 2026-05-06 07:46 | 50.11989 | 8.92451 | 4016 ft | 218 kts | 249° |
| 2026-05-06 07:46 | 50.11493 | 8.90335 | 4002 ft | 199 kts | 250° |
| 2026-05-06 07:47 | 50.11038 | 8.88394 | 3957 ft | 184 kts | 249° |
| 2026-05-06 07:47 | 50.10607 | 8.86562 | 3895 ft | 178 kts | 249° |
| 2026-05-06 07:47 | 50.10184 | 8.84761 | 3836 ft | 176 kts | 249° |
| 2026-05-06 07:47 | 50.09764 | 8.82981 | 3622 ft | 176 kts | 249° |
| 2026-05-06 07:48 | 50.09336 | 8.81172 | 3324 ft | 179 kts | 249° |
| 2026-05-06 07:48 | 50.08905 | 8.79357 | 3095 ft | 178 kts | 249° |
| 2026-05-06 07:48 | 50.08481 | 8.77574 | 2884 ft | 174 kts | 249° |
| 2026-05-06 07:48 | 50.08076 | 8.75823 | 2690 ft | 170 kts | 249° |
| 2026-05-06 07:49 | 50.07680 | 8.74100 | 2496 ft | 168 kts | 250° |
| 2026-05-06 07:49 | 50.07281 | 8.72399 | 2244 ft | 168 kts | 249° |
| 2026-05-06 07:49 | 50.06874 | 8.70727 | 2052 ft | 160 kts | 248° |
| 2026-05-06 07:49 | 50.06485 | 8.69157 | 1827 ft | 149 kts | 248° |
| 2026-05-06 07:50 | 50.06145 | 8.67715 | 1624 ft | 138 kts | 249° |
| 2026-05-06 07:50 | 50.05827 | 8.66334 | 1402 ft | 132 kts | 248° |
| 2026-05-06 07:50 | 50.05518 | 8.64967 | 1204 ft | 136 kts | 247° |
| 2026-05-06 07:50 | 50.05180 | 8.63606 | 1062 ft | 135 kts | 246° |
| 2026-05-06 07:51 | 50.04843 | 8.62186 | 854 ft | 140 kts | 248° |
| 2026-05-06 07:51 | 50.04499 | 8.60761 | 678 ft | 142 kts | 245° |
| 2026-05-06 07:51 | 50.04160 | 8.59317 | 522 ft | 144 kts | 247° |
| 2026-05-06 07:51 | 50.03813 | 8.57859 | 375 ft | 141 kts | 246° |
| 2026-05-06 07:52 | 50.03493 | 8.56541 | 383 ft | 135 kts | 244° |
| 2026-05-06 07:52 | 50.03080 | 8.54967 | 831 ft | 172 kts | 245° |
| 2026-05-06 07:52 | 50.02602 | 8.53183 | 1473 ft | 184 kts | 246° |
| 2026-05-06 07:52 | 50.01852 | 8.51559 | 2073 ft | 191 kts | 218° |
| 2026-05-06 07:53 | 50.00584 | 8.50917 | 2705 ft | 200 kts | 183° |
| 2026-05-06 07:53 | 49.99236 | 8.51552 | 3302 ft | 212 kts | 150° |
| 2026-05-06 07:53 | 49.98220 | 8.53345 | 3700 ft | 234 kts | 118° |
| 2026-05-06 07:53 | 49.97916 | 8.55856 | 3984 ft | 245 kts | 86° |
| 2026-05-06 07:54 | 49.98265 | 8.58141 | 4006 ft | 249 kts | 72° |
| 2026-05-06 07:54 | 49.98844 | 8.60682 | 4006 ft | 249 kts | 70° |
| 2026-05-06 07:54 | 49.99440 | 8.63208 | 4005 ft | 249 kts | 70° |
| 2026-05-06 07:54 | 50.00045 | 8.65722 | 4007 ft | 249 kts | 69° |
| 2026-05-06 07:55 | 50.00649 | 8.68242 | 4006 ft | 249 kts | 70° |
| 2026-05-06 07:55 | 50.01305 | 8.70715 | 3974 ft | 242 kts | 60° |
| 2026-05-06 07:55 | 50.02443 | 8.72411 | 3650 ft | 218 kts | 20° |
| 2026-05-06 07:55 | 50.03842 | 8.72545 | 3227 ft | 197 kts | 339° |
| 2026-05-06 07:56 | 50.05074 | 8.71633 | 2591 ft | 196 kts | 323° |
| 2026-05-06 07:56 | 50.05942 | 8.70063 | 1955 ft | 189 kts | 282° |
| 2026-05-06 07:56 | 50.05921 | 8.68104 | 1487 ft | 177 kts | 262° |